Time;durP1;ratioP1;P1;durP2;ratioP2;P2;SDS_P1;SDS_P2;PMS_P1;PMS_P2;Temp;Humidity;BMP_temperature;BMP_pressure;BME280_temperature;BME280_humidity;BME280_pressure;Samples;Min_cycle;Max_cycle;Signal;HPM_P1;HPM_P2
2021/03/24 00:00:12;;;;;;;52.83;24.25;;;;;;;8.80;91.28;101699.25;5070261;28;20056;-80
2021/03/24 00:02:37;;;;;;;53.28;23.90;;;;;;;8.94;90.42;101699.88;5064247;28;20037;-79
2021/03/24 00:05:09;;;;;;;53.53;25.38;;;;;;;8.83;90.64;101709.34;5049779;28;20041;-80
2021/03/24 00:07:35;;;;;;;61.22;27.05;;;;;;;8.89;90.31;101694.66;5068069;28;20432;-78
2021/03/24 00:10:00;;;;;;;59.78;26.33;;;;;;;8.80;90.40;101697.38;5071577;28;20021;-80
2021/03/24 00:12:26;;;;;;;51.53;25.38;;;;;;;8.83;90.73;101696.72;5054525;28;20100;-80
2021/03/24 00:14:51;;;;;;;56.60;25.23;;;;;;;8.85;90.30;101699.88;5039621;28;20072;-80
2021/03/24 00:17:17;;;;;;;53.45;24.92;;;;;;;8.92;89.47;101705.56;5073648;28;20032;-80
2021/03/24 00:19:42;;;;;;;61.35;26.85;;;;;;;8.83;89.89;101704.78;5074967;28;20059;-80
2021/03/24 00:22:08;;;;;;;61.38;25.33;;;;;;;8.97;89.13;101712.66;5075943;28;20046;-79
2021/03/24 00:24:33;;;;;;;56.08;26.10;;;;;;;8.88;89.66;101712.66;5064334;28;20056;-80
2021/03/24 00:26:59;;;;;;;57.60;25.55;;;;;;;8.86;89.31;101701.47;5067860;28;20492;-80
2021/03/24 00:29:24;;;;;;;57.25;27.02;;;;;;;8.93;89.13;101709.03;5074210;28;20071;-80
2021/03/24 00:31:49;;;;;;;61.75;27.42;;;;;;;8.98;88.93;101704.28;5072789;28;20085;-79
2021/03/24 00:34:15;;;;;;;56.72;25.92;;;;;;;8.96;88.82;101713.78;5067724;28;20028;-80
2021/03/24 00:36:40;;;;;;;59.40;25.80;;;;;;;8.96;88.80;101703.81;5057882;28;20039;-80
2021/03/24 00:39:06;;;;;;;59.00;26.20;;;;;;;8.93;88.76;101707.16;5076227;28;20033;-80
2021/03/24 00:41:31;;;;;;;56.55;25.92;;;;;;;8.94;88.50;101703.34;5065150;28;20481;-79
2021/03/24 00:43:57;;;;;;;62.25;26.27;;;;;;;8.88;88.89;101696.56;5048842;28;20029;-79
2021/03/24 00:46:22;;;;;;;59.47;26.83;;;;;;;8.96;88.70;101697.69;5064127;28;20040;-80
2021/03/24 00:48:48;;;;;;;56.40;25.77;;;;;;;8.99;88.32;101700.50;5066882;28;20052;-79
2021/03/24 00:51:13;;;;;;;57.22;26.60;;;;;;;8.93;88.55;101692.91;5068079;28;20094;-79
2021/03/24 00:53:39;;;;;;;59.72;27.30;;;;;;;8.98;88.50;101690.84;5060793;28;20040;-79
2021/03/24 00:56:05;;;;;;;57.50;26.13;;;;;;;8.99;88.19;101689.75;5068998;28;20039;-80
2021/03/24 00:58:30;;;;;;;60.17;26.85;;;;;;;9.01;88.12;101684.88;5072650;28;20044;-80
2021/03/24 01:00:55;;;;;;;58.67;26.70;;;;;;;8.96;87.83;101690.38;5070524;28;20017;-80
2021/03/24 01:03:21;;;;;;;61.90;26.38;;;;;;;8.96;88.11;101695.75;5062081;28;20553;-80
2021/03/24 01:05:51;;;;;;;61.55;26.95;;;;;;;8.88;88.24;101688.50;5061198;28;20029;-80
2021/03/24 01:08:22;;;;;;;62.90;28.40;;;;;;;8.97;88.19;101689.28;5069724;28;20102;-80
2021/03/24 01:10:48;;;;;;;;;;;;;;;8.80;89.02;101683.94;5057074;28;20032;-81
2021/03/24 01:13:15;;;;;;;55.72;25.20;;;;;;;8.82;88.58;101689.78;5074036;28;19908;-81
2021/03/24 01:15:41;;;;;;;58.05;26.92;;;;;;;8.84;89.07;101684.09;5048879;28;20154;-80
2021/03/24 01:18:08;;;;;;;54.72;25.92;;;;;;;8.88;88.97;101676.97;5052214;28;20047;-79
2021/03/24 01:20:35;;;;;;;61.30;27.13;;;;;;;8.85;89.34;101675.72;5045240;28;20112;-80
2021/03/24 01:23:01;;;;;;;59.70;27.50;;;;;;;8.89;88.47;101678.53;5076126;28;20403;-80
2021/03/24 01:25:27;;;;;;;57.33;27.13;;;;;;;8.92;88.59;101676.00;5076531;28;20039;-80
2021/03/24 01:27:55;;;;;;;60.10;26.35;;;;;;;8.97;88.41;101677.75;5075893;28;20381;-80
2021/03/24 01:30:23;;;;;;;57.58;26.35;;;;;;;9.03;87.94;101676.47;5074839;28;20032;-80
2021/03/24 01:32:49;;;;;;;59.58;27.33;;;;;;;8.94;87.98;101676.47;5052782;28;20082;-80
2021/03/24 01:35:17;;;;;;;60.05;27.48;;;;;;;8.98;88.09;101682.81;5073945;28;20470;-80
2021/03/24 01:37:43;;;;;;;58.90;26.27;;;;;;;8.91;88.47;101676.34;5076507;28;20388;-80
2021/03/24 01:40:18;;;;;;;57.20;26.33;;;;;;;8.90;88.90;101670.16;5067110;28;20030;-80
2021/03/24 01:42:43;;;;;;;63.45;28.00;;;;;;;8.88;88.72;101675.06;5067823;28;20045;-81
2021/03/24 01:45:09;;;;;;;58.78;26.00;;;;;;;8.84;89.28;101671.47;5065182;28;20037;-81
2021/03/24 01:47:35;;;;;;;58.17;27.25;;;;;;;8.90;89.00;101669.41;5069920;28;20057;-79
2021/03/24 01:50:01;;;;;;;58.20;26.27;;;;;;;8.90;88.59;101677.44;5055386;28;20040;-80
2021/03/24 01:52:27;;;;;;;54.75;25.85;;;;;;;8.84;89.03;101676.03;5057792;28;20033;-80
2021/03/24 01:54:52;;;;;;;57.95;26.08;;;;;;;8.81;89.50;101669.41;5063554;28;20071;-80
2021/03/24 01:57:25;;;;;;;58.80;27.40;;;;;;;8.88;89.35;101664.31;5059739;22;20048;-76
2021/03/24 01:59:53;;;;;;;60.70;27.38;;;;;;;8.96;88.64;101662.75;5052279;28;20112;-75
2021/03/24 02:02:22;;;;;;;63.55;27.17;;;;;;;8.82;89.39;101668.31;5041295;28;20067;-76
2021/03/24 02:04:49;;;;;;;63.25;27.27;;;;;;;8.69;89.85;101660.41;5047296;28;20515;-75
2021/03/24 02:07:21;;;;;;;68.22;28.58;;;;;;;8.79;89.57;101668.91;5034474;28;20031;-76
2021/03/24 02:10:08;;;;;;;64.03;27.95;;;;;;;8.79;89.62;101663.53;5046982;28;20029;-75
2021/03/24 02:12:48;;;;;;;64.82;28.65;;;;;;;8.74;89.81;101661.03;5047085;28;20036;-78
2021/03/24 02:15:39;;;;;;;68.18;30.38;;;;;;;8.72;90.07;101657.09;5027869;28;20548;-77
2021/03/24 02:18:06;;;;;;;63.65;28.45;;;;;;;8.69;90.45;101663.88;5029410;28;20040;-76
2021/03/24 02:20:53;;;;;;;59.50;27.88;;;;;;;8.75;90.23;101657.22;5043295;28;20026;-76
2021/03/24 02:23:28;;;;;;;68.03;27.75;;;;;;;8.73;89.99;101664.03;5027351;28;20041;-77
2021/03/24 02:26:12;;;;;;;64.82;28.65;;;;;;;8.76;90.12;101663.41;5047853;28;20068;-77
2021/03/24 02:28:40;;;;;;;67.80;30.13;;;;;;;8.62;90.62;101657.41;5050170;28;20029;-77
2021/03/24 02:31:08;;;;;;;65.38;29.23;;;;;;;8.74;90.86;101661.03;5038647;28;20033;-77
2021/03/24 02:33:41;;;;;;;65.40;29.08;;;;;;;8.64;90.83;101664.03;5042499;28;20032;-77
2021/03/24 02:36:12;;;;;;;68.28;29.55;;;;;;;8.65;91.10;101657.53;5041972;28;20037;-77
2021/03/24 02:38:40;;;;;;;67.30;30.65;;;;;;;8.67;91.48;101655.34;5051433;28;20047;-77
2021/03/24 02:41:06;;;;;;;69.53;31.02;;;;;;;8.81;90.34;101655.16;5045300;28;20509;-76
2021/03/24 02:43:34;;;;;;;69.75;29.63;;;;;;;8.74;90.44;101661.03;5039570;28;20040;-76
2021/03/24 02:46:03;;;;;;;69.45;29.98;;;;;;;8.55;91.53;101647.16;5022382;28;20037;-77
2021/03/24 02:48:33;;;;;;;65.85;29.50;;;;;;;8.58;91.74;101653.75;5043000;28;20029;-76
2021/03/24 02:51:00;;;;;;;74.07;31.30;;;;;;;8.57;92.24;101652.19;5047929;28;20049;-77
2021/03/24 02:53:28;;;;;;;71.72;31.85;;;;;;;8.53;92.14;101657.41;5045410;28;20063;-75
2021/03/24 02:55:58;;;;;;;72.07;31.55;;;;;;;8.58;92.03;101654.56;5050613;28;20596;-76
2021/03/24 02:58:23;;;;;;;70.57;31.38;;;;;;;8.55;91.75;101647.16;5049718;28;20040;-76
2021/03/24 03:00:49;;;;;;;75.82;32.40;;;;;;;8.47;92.59;101652.50;5048821;28;20029;-77
2021/03/24 03:03:20;;;;;;;73.03;31.23;;;;;;;8.63;92.16;101634.81;5043729;28;20028;-77
2021/03/24 03:05:47;;;;;;;77.78;32.03;;;;;;;8.68;91.58;101648.06;5034927;28;20037;-75
2021/03/24 03:08:19;;;;;;;74.63;32.05;;;;;;;8.58;91.95;101643.81;5051003;28;20037;-75
2021/03/24 03:11:08;;;;;;;75.22;32.03;;;;;;;8.59;92.12;101650.78;5032650;28;20063;-75
2021/03/24 03:13:43;;;;;;;74.07;32.05;;;;;;;8.56;92.25;101643.34;5045028;28;20075;-75
2021/03/24 03:16:14;;;;;;;80.00;33.85;;;;;;;8.35;92.72;101647.75;5048319;28;20102;-75
2021/03/24 03:18:45;;;;;;;71.30;31.92;;;;;;;8.47;92.92;101634.50;5041880;28;20040;-75
2021/03/24 03:21:17;;;;;;;77.30;32.80;;;;;;;8.40;93.52;101646.81;5049369;28;20051;-76
2021/03/24 03:23:44;;;;;;;74.28;33.05;;;;;;;8.32;93.57;101642.25;5039999;28;20037;-75
2021/03/24 03:26:15;;;;;;;79.90;32.90;;;;;;;8.52;93.35;101646.97;5050282;28;20051;-76
2021/03/24 03:28:44;;;;;;;77.07;32.75;;;;;;;8.54;92.75;101642.06;5050456;28;20348;-75
2021/03/24 03:31:38;;;;;;;76.72;33.40;;;;;;;8.56;92.70;101637.19;5027754;28;20512;-75
2021/03/24 03:34:08;;;;;;;80.45;32.38;;;;;;;8.54;92.51;101640.19;5026138;28;20045;-75
2021/03/24 03:36:35;;;;;;;85.20;34.28;;;;;;;8.48;92.72;101644.13;5046359;28;20033;-74
2021/03/24 03:39:04;;;;;;;82.63;34.42;;;;;;;8.46;93.01;101632.91;5031434;28;20029;-75
2021/03/24 03:41:32;;;;;;;81.88;34.22;;;;;;;8.60;92.25;101635.44;5031825;28;20490;-74
2021/03/24 03:43:59;;;;;;;77.30;33.45;;;;;;;8.64;91.82;101639.88;5050342;28;20025;-75
2021/03/24 03:46:30;;;;;;;81.25;34.65;;;;;;;8.59;92.14;101631.19;5028645;28;20024;-74
2021/03/24 03:48:56;;;;;;;;;;;;;;;8.52;92.37;101631.66;5050841;28;20198;-75
2021/03/24 03:51:36;;;;;;;80.50;31.02;;;;;;;8.54;92.47;101628.66;5044401;28;20397;-75
2021/03/24 03:54:12;;;;;;;82.50;33.65;;;;;;;8.48;92.66;101638.75;5049825;28;20231;-74
2021/03/24 03:56:44;;;;;;;80.57;35.13;;;;;;;8.64;91.65;101631.03;5047823;28;20566;-75
2021/03/24 03:59:28;;;;;;;79.70;34.47;;;;;;;8.71;91.32;101625.97;5043305;28;20029;-75
2021/03/24 04:01:57;;;;;;;78.22;33.85;;;;;;;8.53;91.94;101637.81;5047031;28;20060;-76
2021/03/24 04:04:31;;;;;;;85.45;34.05;;;;;;;8.57;92.12;101628.84;5038719;28;20082;-75
2021/03/24 04:07:20;;;;;;;81.72;34.00;;;;;;;8.48;92.80;101619.22;5037684;28;20033;-75
2021/03/24 04:09:47;;;;;;;79.72;32.97;;;;;;;8.54;92.50;101640.19;5049521;28;20044;-75
2021/03/24 04:12:15;;;;;;;81.22;33.42;;;;;;;8.51;92.39;101640.84;5043806;28;20057;-75
2021/03/24 04:14:43;;;;;;;80.20;34.85;;;;;;;8.38;92.95;101631.03;5040614;28;20599;-75
2021/03/24 04:17:14;;;;;;;78.75;34.58;;;;;;;8.38;93.43;101631.03;5032025;28;20061;-75
2021/03/24 04:19:44;;;;;;;88.10;35.80;;;;;;;8.44;93.10;101637.81;5045686;28;20409;-74
2021/03/24 04:22:12;;;;;;;88.50;35.90;;;;;;;8.45;92.52;101631.34;5043958;28;20038;-75
2021/03/24 04:24:46;;;;;;;83.43;32.92;;;;;;;8.42;92.55;101631.97;5027984;28;20112;-75
2021/03/24 04:27:17;;;;;;;84.30;34.55;;;;;;;8.39;93.12;101634.50;5050095;28;20032;-75
2021/03/24 04:29:54;;;;;;;77.32;34.40;;;;;;;8.37;93.01;101632.13;5031674;28;20025;-74
2021/03/24 04:32:20;;;;;;;79.95;32.72;;;;;;;8.35;93.30;101641.59;5028852;28;20041;-76
2021/03/24 04:34:46;;;;;;;84.57;34.03;;;;;;;8.44;93.00;101640.50;5018381;28;20036;-74
2021/03/24 04:37:18;;;;;;;87.88;34.15;;;;;;;8.38;92.85;101636.38;5043674;28;20504;-74
2021/03/24 04:39:51;;;;;;;77.45;33.55;;;;;;;8.50;92.66;101644.59;5048708;28;20037;-75
2021/03/24 04:42:22;;;;;;;82.95;34.55;;;;;;;8.37;92.37;101647.44;5039107;28;20040;-75
2021/03/24 04:44:52;;;;;;;87.03;34.60;;;;;;;8.40;93.21;101646.81;5013831;28;20033;-76
2021/03/24 04:47:31;;;;;;;86.55;34.08;;;;;;;8.34;93.33;101640.03;5029522;28;20502;-75
2021/03/24 04:50:01;;;;;;;82.20;32.75;;;;;;;8.40;92.66;101636.09;5038777;28;20025;-74
2021/03/24 04:52:30;;;;;;;84.38;34.65;;;;;;;8.48;92.16;101641.44;5040265;28;20017;-74
2021/03/24 04:55:02;;;;;;;86.28;35.88;;;;;;;8.55;92.20;101638.31;5040560;28;20112;-75
2021/03/24 04:57:28;;;;;;;88.30;35.17;;;;;;;8.57;92.10;101650.31;5032437;28;20045;-75
2021/03/24 05:00:04;;;;;;;88.47;35.97;;;;;;;8.58;91.80;101643.81;5047492;28;20040;-74
2021/03/24 05:02:35;;;;;;;85.88;35.05;;;;;;;8.45;92.58;101641.28;5021885;28;20494;-75
2021/03/24 05:05:09;;;;;;;84.05;35.78;;;;;;;8.41;92.68;101640.34;5044784;28;20064;-75
2021/03/24 05:07:45;;;;;;;84.07;34.97;;;;;;;8.14;93.84;101646.75;5022812;28;20033;-75
2021/03/24 05:10:19;;;;;;;89.60;36.10;;;;;;;8.40;92.99;101636.09;5038231;28;20033;-75
2021/03/24 05:12:49;;;;;;;79.45;35.08;;;;;;;8.48;92.38;101641.44;5032444;28;20422;-75
2021/03/24 05:15:20;;;;;;;87.53;35.45;;;;;;;8.47;92.48;101644.47;5040435;28;20029;-75
2021/03/24 05:17:47;;;;;;;87.22;34.33;;;;;;;8.43;92.31;101638.13;5050236;28;20029;-74
2021/03/24 05:20:30;;;;;;;91.43;37.05;;;;;;;8.48;92.33;101646.03;5050086;28;20039;-75
2021/03/24 05:22:56;;;;;;;89.65;35.38;;;;;;;8.37;92.55;101647.44;5029296;28;20041;-75
2021/03/24 05:25:41;;;;;;;86.43;35.20;;;;;;;8.38;93.13;101655.16;5043211;28;20385;-75
2021/03/24 05:28:27;;;;;;;82.22;35.22;;;;;;;8.40;92.57;101655.66;5030187;28;20086;-75
2021/03/24 05:30:59;;;;;;;87.82;36.05;;;;;;;8.34;93.63;101656.94;5038639;28;20033;-74
2021/03/24 05:33:26;;;;;;;;;;;;;;;8.42;93.72;101647.31;5044531;28;20398;-75
2021/03/24 05:35:57;;;;;;;81.65;32.97;;;;;;;8.48;92.66;101643.38;5039264;28;19908;-74
2021/03/24 05:38:29;;;;;;;78.97;33.30;;;;;;;8.41;92.97;101648.41;5042025;28;20033;-75
2021/03/24 05:41:26;;;;;;;90.93;35.28;;;;;;;8.33;93.26;101651.84;5042216;28;20028;-74
2021/03/24 05:44:11;;;;;;;84.97;35.08;;;;;;;8.39;92.81;101637.19;5046008;28;20041;-75
2021/03/24 05:47:03;;;;;;;83.68;34.65;;;;;;;8.42;92.97;101650.75;5035084;28;20409;-75
2021/03/24 05:49:48;;;;;;;93.45;35.97;;;;;;;8.42;92.48;101650.00;5036507;28;20049;-75
2021/03/24 05:52:16;;;;;;;90.88;35.28;;;;;;;8.52;92.27;101658.50;5035732;28;20041;-74
2021/03/24 05:55:20;;;;;;;94.07;36.25;;;;;;;8.52;91.97;101647.75;5036313;28;20033;-75
2021/03/24 05:57:58;;;;;;;85.22;34.97;;;;;;;8.40;92.92;101662.94;5041042;28;20565;-75
2021/03/24 06:00:36;;;;;;;81.95;34.58;;;;;;;8.43;92.71;101638.13;5046239;28;20037;-75
2021/03/24 06:03:01;;;;;;;85.57;35.33;;;;;;;8.39;92.81;101654.09;5046856;28;20036;-76
2021/03/24 06:05:39;;;;;;;88.35;33.45;;;;;;;8.36;93.30;101656.63;5045106;28;20028;-76
2021/03/24 06:08:26;;;;;;;90.05;35.92;;;;;;;8.48;92.88;101656.78;5041449;28;20041;-75
2021/03/24 06:11:18;;;;;;;92.95;34.88;;;;;;;8.51;92.29;101659.63;5022714;28;20025;-75
2021/03/24 06:14:02;;;;;;;;;;;;;;;8.52;92.30;101660.38;5044206;28;20421;-75
2021/03/24 06:17:06;;;;;;;91.10;33.10;;;;;;;8.56;92.10;101654.09;5042538;28;20432;-75
2021/03/24 06:20:13;;;;;;;83.90;33.53;;;;;;;8.53;92.08;101654.72;5042672;28;20048;-75
2021/03/24 06:22:41;;;;;;;87.97;34.13;;;;;;;8.55;92.35;101657.88;5041595;28;20433;-75
2021/03/24 06:25:36;;;;;;;83.85;34.33;;;;;;;8.46;92.79;101661.69;5042770;28;20024;-75
2021/03/24 06:28:28;;;;;;;89.32;34.38;;;;;;;8.56;92.36;101672.06;5007119;28;20045;-75
2021/03/24 06:31:21;;;;;;;83.97;34.05;;;;;;;8.60;92.22;101663.09;5048689;28;20504;-75
2021/03/24 06:34:02;;;;;;;88.72;34.55;;;;;;;8.58;92.41;101667.19;5044544;28;20044;-75
2021/03/24 06:37:21;;;;;;;86.30;33.47;;;;;;;8.66;91.85;101669.88;5038662;28;20029;-75
2021/03/24 06:40:19;;;;;;;81.80;33.65;;;;;;;8.56;92.46;101670.19;4936252;29;20528;-78
2021/03/24 06:43:13;;;;;;;80.32;31.67;;;;;;;8.61;92.60;101664.69;4925118;29;20071;-77
2021/03/24 06:45:49;;;;;;;81.60;32.67;;;;;;;8.58;92.46;101662.63;4926946;29;20051;-74
2021/03/24 06:49:18;;;;;;;82.78;34.97;;;;;;;8.75;91.43;101651.09;4916563;29;20040;-75
2021/03/24 06:52:21;;;;;;;76.57;31.58;;;;;;;8.65;91.71;101665.59;4890278;29;20116;-75
2021/03/24 06:55:32;;;;;;;82.68;31.65;;;;;;;8.72;91.83;101670.50;4892358;29;20143;-75
2021/03/24 06:58:46;;;;;;;80.88;32.05;;;;;;;8.82;91.58;101660.25;4924856;29;20048;-76
2021/03/24 07:01:29;;;;;;;78.35;31.90;;;;;;;8.86;91.48;101652.34;4877418;29;20049;-74
2021/03/24 07:04:16;;;;;;;79.90;32.45;;;;;;;8.76;91.21;101669.56;4930446;29;20035;-74
2021/03/24 07:07:02;;;;;;;79.28;33.38;;;;;;;8.86;91.25;101661.19;4924045;29;20052;-77
2021/03/24 07:09:45;;;;;;;80.22;32.05;;;;;;;8.76;91.89;101655.34;4945829;28;20049;-74
2021/03/24 07:12:22;;;;;;;82.25;32.67;;;;;;;8.83;91.90;101661.00;5028029;28;20068;-74
2021/03/24 07:15:14;;;;;;;75.93;30.63;;;;;;;9.00;89.86;101675.22;5042854;28;20180;-74
2021/03/24 07:17:48;;;;;;;75.22;31.30;;;;;;;8.83;91.13;101664.50;5028717;28;20044;-74
2021/03/24 07:20:52;;;;;;;76.85;31.67;;;;;;;8.88;90.22;101660.88;5033618;28;20048;-74
2021/03/24 07:23:26;;;;;;;78.47;31.45;;;;;;;8.54;92.55;101674.28;4993160;28;20049;-78
2021/03/24 07:26:02;;;;;;;78.70;31.25;;;;;;;8.77;90.89;101686.44;5032261;28;20037;-74
2021/03/24 07:28:54;;;;;;;72.55;31.33;;;;;;;8.49;92.26;101672.56;5033775;28;20032;-75
2021/03/24 07:31:40;;;;;;;75.22;30.73;;;;;;;8.78;92.50;101661.19;5044317;28;20033;-75
2021/03/24 07:34:45;;;;;;;85.72;33.53;;;;;;;9.01;90.57;101671.44;5024118;28;20568;-74
2021/03/24 07:37:24;;;;;;;75.72;31.60;;;;;;;8.92;91.21;101672.56;5025908;28;20033;-74
2021/03/24 07:40:04;;;;;;;80.38;31.90;;;;;;;8.99;89.88;101679.03;5021343;28;20723;-75
2021/03/24 07:42:32;;;;;;;78.38;31.58;;;;;;;8.65;91.88;101673.66;5020650;28;20041;-76
2021/03/24 07:45:30;;;;;;;75.18;32.47;;;;;;;9.01;91.28;101666.06;5037853;28;20484;-75
2021/03/24 07:48:23;;;;;;;75.40;31.25;;;;;;;9.14;90.28;101676.94;5019660;28;20045;-76
2021/03/24 07:51:13;;;;;;;76.13;32.03;;;;;;;9.39;88.58;101676.09;5034715;28;20025;-76
2021/03/24 07:53:44;;;;;;;76.20;31.60;;;;;;;9.17;88.81;101663.66;5045741;28;20083;-75
2021/03/24 07:56:21;;;;;;;74.15;32.72;;;;;;;9.27;89.11;101668.66;5040913;28;20576;-74
2021/03/24 07:59:12;;;;;;;77.65;31.65;;;;;;;9.44;88.80;101676.72;5037021;28;20146;-74
2021/03/24 08:02:00;;;;;;;78.30;33.38;;;;;;;9.24;88.28;101676.59;5012519;28;20120;-75
2021/03/24 08:04:34;;;;;;;82.55;34.20;;;;;;;9.22;89.39;101684.97;5039648;28;20041;-74
2021/03/24 08:07:26;;;;;;;84.00;33.92;;;;;;;9.36;89.71;101685.59;5038984;28;20112;-75
2021/03/24 08:09:58;;;;;;;88.25;34.30;;;;;;;9.56;88.48;101679.50;5036760;28;20489;-75
2021/03/24 08:13:00;;;;;;;80.57;33.67;;;;;;;9.65;88.24;101680.25;5040926;28;20033;-74
2021/03/24 08:15:31;;;;;;;75.25;33.40;;;;;;;9.86;87.15;101699.16;4997576;28;20132;-76
2021/03/24 08:18:20;;;;;;;84.45;34.55;;;;;;;9.90;87.12;101694.69;5017385;28;20072;-74
2021/03/24 08:20:58;;;;;;;82.85;33.92;;;;;;;9.96;87.31;101680.75;5025133;28;20048;-75
2021/03/24 08:23:40;;;;;;;86.07;35.40;;;;;;;10.02;87.09;101681.34;5042794;28;20037;-75
2021/03/24 08:26:18;;;;;;;87.20;34.95;;;;;;;10.03;87.17;101688.28;5035767;28;20047;-76
2021/03/24 08:28:43;;;;;;;89.55;35.80;;;;;;;9.99;87.92;101680.09;5042655;28;20030;-74
2021/03/24 08:31:26;;;;;;;92.20;37.67;;;;;;;10.07;86.75;101685.75;5031007;28;20103;-75
2021/03/24 08:34:03;;;;;;;88.90;36.63;;;;;;;9.73;88.82;101684.03;5042510;28;20047;-75
2021/03/24 08:37:08;;;;;;;93.20;37.33;;;;;;;9.85;88.69;101676.81;5040433;28;20044;-75
2021/03/24 08:40:01;;;;;;;89.78;36.05;;;;;;;10.12;87.97;101674.84;5042804;28;20044;-75
2021/03/24 08:42:55;;;;;;;87.07;36.78;;;;;;;10.26;87.44;101678.84;5043527;28;20039;-75
2021/03/24 08:45:26;;;;;;;92.20;36.95;;;;;;;10.30;86.64;101682.47;5039337;28;20520;-74
2021/03/24 08:47:57;;;;;;;86.38;36.92;;;;;;;10.38;86.66;101686.22;5045221;28;20090;-75
2021/03/24 08:50:36;;;;;;;86.35;36.38;;;;;;;10.36;86.35;101683.84;5032928;28;20040;-76
2021/03/24 08:53:37;;;;;;;93.60;39.03;;;;;;;10.39;86.88;101677.03;5048073;28;20090;-76
2021/03/24 08:56:17;;;;;;;87.03;38.10;;;;;;;10.44;86.56;101674.13;5022303;28;20032;-76
2021/03/24 08:58:58;;;;;;;92.80;39.28;;;;;;;10.69;86.35;101671.25;5038333;28;20041;-76
2021/03/24 09:01:39;;;;;;;85.75;36.50;;;;;;;10.90;84.83;101672.00;5037386;28;20109;-76
2021/03/24 09:04:23;;;;;;;85.53;36.17;;;;;;;10.65;84.54;101669.53;5038529;28;20087;-77
2021/03/24 09:07:18;;;;;;;80.00;35.25;;;;;;;10.88;85.31;101665.34;5037968;28;20029;-76
2021/03/24 09:10:11;;;;;;;81.57;35.70;;;;;;;10.78;84.24;101671.94;5034417;28;20041;-75
2021/03/24 09:12:52;;;;;;;85.82;36.53;;;;;;;11.29;84.00;101681.44;5002804;28;20028;-77
2021/03/24 09:15:25;;;;;;;86.28;37.45;;;;;;;11.69;82.05;101670.88;5045914;28;20033;-75
2021/03/24 09:18:28;;;;;;;86.07;36.75;;;;;;;11.93;81.40;101672.75;5040207;28;20029;-76
2021/03/24 09:21:00;;;;;;;80.80;35.65;;;;;;;12.33;79.29;101670.91;5032256;28;20716;-76
2021/03/24 09:23:32;;;;;;;77.55;34.72;;;;;;;12.47;77.66;101665.91;5037355;28;20112;-76
2021/03/24 09:26:29;;;;;;;88.53;37.53;;;;;;;12.31;78.40;101665.06;5041691;28;20033;-77
2021/03/24 09:29:19;;;;;;;87.47;37.30;;;;;;;12.68;76.92;101653.00;5040225;28;20049;-76
2021/03/24 09:31:55;;;;;;;81.55;36.60;;;;;;;12.80;76.54;101649.47;5043713;28;20025;-75
2021/03/24 09:34:39;;;;;;;78.05;35.47;;;;;;;13.09;76.29;101652.63;5039676;28;20511;-74
2021/03/24 09:37:12;;;;;;;81.22;36.08;;;;;;;13.50;73.61;101651.34;5027467;28;20076;-76
2021/03/24 09:40:48;;;;;;;80.95;37.10;;;;;;;13.66;73.19;101649.44;5049404;28;20596;-76
2021/03/24 09:43:33;;;;;;;77.90;35.60;;;;;;;13.87;70.93;101651.84;4910476;29;20043;-75
2021/03/24 09:46:18;;;;;;;77.22;36.15;;;;;;;13.84;70.51;101644.44;5039343;28;20420;-76
2021/03/24 09:48:50;;;;;;;74.35;34.78;;;;;;;13.94;70.03;101636.53;5020565;28;20090;-76
2021/03/24 09:51:21;;;;;;;76.78;34.90;;;;;;;13.24;72.00;101642.97;5046566;28;20037;-75
2021/03/24 09:53:47;;;;;;;76.38;34.92;;;;;;;14.08;71.33;101642.28;5040960;28;20032;-76
2021/03/24 09:56:24;;;;;;;78.90;37.67;;;;;;;13.62;71.53;101648.56;5041973;28;20383;-76
2021/03/24 09:59:13;;;;;;;73.88;35.53;;;;;;;13.98;69.23;101642.81;5046656;28;20033;-77
2021/03/24 10:01:39;;;;;;;77.15;37.08;;;;;;;13.91;69.52;101636.47;5039421;28;20036;-77
2021/03/24 10:04:05;;;;;;;79.70;36.72;;;;;;;13.64;72.55;101640.88;5043971;28;20040;-76
2021/03/24 10:06:52;;;;;;;75.65;36.20;;;;;;;13.83;71.79;101640.13;5037853;28;20029;-76
2021/03/24 10:09:39;;;;;;;73.80;35.25;;;;;;;13.85;70.10;101644.06;5038691;28;20375;-76
2021/03/24 10:12:28;;;;;;;71.45;34.78;;;;;;;13.98;68.84;101642.81;5045880;28;20029;-75
2021/03/24 10:15:12;;;;;;;71.78;33.65;;;;;;;14.05;68.19;101637.53;5045189;28;20033;-77
2021/03/24 10:17:47;;;;;;;74.07;34.88;;;;;;;13.18;72.09;101625.41;5049016;28;20444;-77
2021/03/24 10:20:31;;;;;;;79.07;33.75;;;;;;;13.58;70.59;101629.53;5047263;28;20076;-77
2021/03/24 10:23:13;;;;;;;61.60;30.77;;;;;;;13.24;68.93;101629.44;5045375;28;20044;-74
2021/03/24 10:25:42;;;;;;;66.15;30.92;;;;;;;13.32;69.93;101623.06;5031390;28;20505;-76
2021/03/24 10:28:20;;;;;;;68.70;31.40;;;;;;;13.51;69.81;101625.88;5021839;28;20022;-76
2021/03/24 10:31:12;;;;;;;69.00;31.58;;;;;;;13.51;69.52;101617.75;5032183;28;20028;-75
2021/03/24 10:33:46;;;;;;;76.15;32.72;;;;;;;13.87;68.02;101617.44;5022084;28;20242;-76
2021/03/24 10:36:26;;;;;;;63.95;30.73;;;;;;;13.70;68.79;101619.72;5032939;28;20037;-76
2021/03/24 10:39:21;;;;;;;66.07;31.20;;;;;;;13.71;69.90;101619.38;5036938;28;20159;-75
2021/03/24 10:41:58;;;;;;;64.00;29.52;;;;;;;13.77;68.36;101615.25;5033001;28;20101;-75
2021/03/24 10:45:03;;;;;;;56.72;29.08;;;;;;;13.65;67.61;101617.28;5037633;28;20120;-75
2021/03/24 10:47:40;;;;;;;58.55;26.75;;;;;;;13.76;67.11;101615.63;5016411;28;20370;-76
2021/03/24 10:50:29;;;;;;;58.92;28.65;;;;;;;13.87;67.86;101611.22;5035759;28;20021;-77
2021/03/24 10:52:57;;;;;;;61.42;29.38;;;;;;;13.94;67.31;101609.44;5023901;28;20536;-75
2021/03/24 10:55:23;;;;;;;54.58;27.25;;;;;;;14.09;64.39;101605.16;5038140;28;20083;-76
2021/03/24 10:57:53;;;;;;;62.55;28.40;;;;;;;13.84;65.67;101612.69;5021367;28;20040;-76
2021/03/24 11:00:34;;;;;;;61.63;29.95;;;;;;;13.99;65.50;101613.81;5039024;28;20069;-76
2021/03/24 11:03:20;;;;;;;65.75;32.03;;;;;;;13.96;65.02;101609.88;5041866;28;20501;-76
2021/03/24 11:05:54;;;;;;;69.97;32.40;;;;;;;14.01;65.85;101612.34;5035140;28;20123;-74
2021/03/24 11:08:27;;;;;;;64.43;31.50;;;;;;;14.17;65.29;101602.22;5029620;28;20021;-72
2021/03/24 11:11:06;;;;;;;62.38;30.92;;;;;;;14.66;62.99;101591.59;5017666;28;20072;-73
2021/03/24 11:13:51;;;;;;;64.22;30.42;;;;;;;14.68;62.07;101596.66;5038633;28;20033;-75
2021/03/24 11:16:26;;;;;;;58.65;30.10;;;;;;;15.06;61.00;101604.75;5031005;28;20080;-76
2021/03/24 11:19:06;;;;;;;68.15;31.00;;;;;;;15.39;59.23;101602.97;5035847;28;20029;-73
2021/03/24 11:21:59;;;;;;;62.60;31.05;;;;;;;15.78;56.31;101611.75;5034690;28;20075;-77
2021/03/24 11:24:41;;;;;;;56.83;30.55;;;;;;;16.00;55.32;101608.19;5015199;28;20067;-76
2021/03/24 11:27:25;;;;;;;57.20;29.88;;;;;;;15.93;54.83;101599.94;5033588;28;20041;-76
2021/03/24 11:30:23;;;;;;;61.03;31.00;;;;;;;15.58;55.56;101610.28;5032165;28;20593;-76
2021/03/24 11:32:48;;;;;;;69.53;32.33;;;;;;;15.49;57.38;101607.03;5021136;28;20096;-77
2021/03/24 11:35:35;;;;;;;57.53;31.80;;;;;;;15.67;56.98;101613.53;5043338;28;20033;-75
2021/03/24 11:38:23;;;;;;;60.35;30.70;;;;;;;15.66;57.25;101603.03;5016948;28;20451;-76
2021/03/24 11:41:08;;;;;;;59.72;30.10;;;;;;;15.42;56.60;101601.50;5038926;28;20044;-74
2021/03/24 11:43:40;;;;;;;56.88;28.60;;;;;;;15.59;56.55;101592.06;5041874;28;20554;-77
2021/03/24 11:46:19;;;;;;;59.22;30.05;;;;;;;15.93;55.69;101599.94;5042706;28;20094;-76
2021/03/24 11:49:12;;;;;;;58.83;28.95;;;;;;;16.08;55.39;101590.06;5039620;28;20033;-75
2021/03/24 11:52:02;;;;;;;55.97;29.02;;;;;;;16.30;54.96;101589.16;5035456;28;20045;-77
2021/03/24 11:54:36;;;;;;;56.20;29.67;;;;;;;16.67;52.50;101589.22;5042078;28;20021;-77
2021/03/24 11:57:04;;;;;;;56.03;28.52;;;;;;;16.76;51.95;101589.72;5034260;28;20059;-76
2021/03/24 11:59:32;;;;;;;55.47;29.15;;;;;;;16.27;52.54;101577.09;5037643;28;20033;-75
2021/03/24 12:02:14;;;;;;;56.95;29.23;;;;;;;16.47;52.72;101574.22;5038880;28;20047;-74